createdAt,value
2022-09-07T00:01:04.551Z,99972.91
2022-09-07T00:03:32.052Z,99976.09
2022-09-07T00:05:59.477Z,100044.09
2022-09-07T00:08:27.724Z,100036.88
2022-09-07T00:10:57.787Z,100021.06
2022-09-07T00:13:27.559Z,100026.28
2022-09-07T00:15:54.901Z,100030.66
2022-09-07T00:18:21.933Z,100027.75
2022-09-07T00:20:59.863Z,99972.00
2022-09-07T00:23:28.671Z,100017.34
2022-09-07T00:26:02.884Z,99999.69
2022-09-07T00:28:30.965Z,99992.38
2022-09-07T00:30:58.231Z,99992.38
2022-09-07T00:33:25.744Z,99983.00
2022-09-07T00:35:53.058Z,99997.81
2022-09-07T00:38:20.230Z,99977.16
2022-09-07T00:40:47.223Z,99962.72
2022-09-07T00:43:29.020Z,99976.53
2022-09-07T00:45:56.310Z,99971.28
2022-09-07T00:48:32.972Z,99970.81
2022-09-07T00:51:05.661Z,99983.81
2022-09-07T00:53:43.180Z,99980.75
2022-09-07T00:56:11.660Z,99976.19
2022-09-07T00:58:42.499Z,99979.81
2022-09-07T01:01:10.341Z,99976.69
2022-09-07T01:03:45.379Z,100004.59
2022-09-07T01:06:21.325Z,100022.22
2022-09-07T01:08:50.570Z,100003.91
2022-09-07T01:11:20.018Z,100038.84
2022-09-07T01:13:48.276Z,100048.81
2022-09-07T01:16:37.896Z,100053.13
2022-09-07T01:19:14.582Z,100057.28
2022-09-07T01:22:06.386Z,100079.75
2022-09-07T01:24:59.708Z,100048.13
2022-09-07T01:27:51.543Z,100070.03
2022-09-07T01:30:20.824Z,100061.19
2022-09-07T01:33:13.545Z,100067.56
2022-09-07T01:35:44.155Z,100047.41
2022-09-07T01:38:19.499Z,100035.09
2022-09-07T01:41:14.229Z,100079.34
2022-09-07T01:44:01.566Z,100071.16
2022-09-07T01:46:50.306Z,100087.53
2022-09-07T01:49:20.969Z,100085.84
2022-09-07T01:51:53.297Z,100084.34
2022-09-07T01:54:45.772Z,100060.72
2022-09-07T01:57:25.725Z,100075.97
2022-09-07T02:00:13.097Z,100091.06
2022-09-07T02:02:55.373Z,100085.09
2022-09-07T02:05:37.584Z,100068.44
2022-09-07T02:08:15.329Z,100073.97
2022-09-07T02:10:51.130Z,100054.28
2022-09-07T02:13:55.325Z,100056.47
2022-09-07T02:16:45.422Z,100053.31
2022-09-07T02:19:23.708Z,100044.06
2022-09-07T02:22:27.607Z,100041.09
2022-09-07T02:25:00.558Z,100049.56
2022-09-07T02:27:53.819Z,100050.16
2022-09-07T02:30:30.539Z,100050.91
2022-09-07T02:33:08.048Z,100049.53
2022-09-07T02:35:42.813Z,100050.41
2022-09-07T02:38:32.483Z,100061.09
2022-09-07T02:41:07.124Z,100063.41
2022-09-07T02:43:38.497Z,100075.78
2022-09-07T02:46:55.182Z,100081.44
2022-09-07T02:49:58.068Z,100052.81
2022-09-07T02:53:00.971Z,100077.91
2022-09-07T02:55:51.234Z,100079.63
2022-09-07T02:58:46.059Z,100053.41
2022-09-07T03:01:32.958Z,100087.34
2022-09-07T03:04:30.554Z,100084.72
2022-09-07T03:07:24.798Z,100081.84
2022-09-07T03:10:03.246Z,100077.94
2022-09-07T03:13:01.888Z,100081.41
2022-09-07T03:15:55.666Z,100087.78
2022-09-07T03:18:29.914Z,100078.25
2022-09-07T03:21:12.407Z,100096.31
2022-09-07T03:23:40.627Z,100095.31
2022-09-07T03:26:08.346Z,100088.97
2022-09-07T03:28:43.335Z,100093.28
2022-09-07T03:31:25.320Z,100088.75
2022-09-07T03:33:55.875Z,100087.47
2022-09-07T03:36:26.912Z,100085.03
2022-09-07T03:39:06.936Z,100081.41
2022-09-07T03:42:01.391Z,100088.75
2022-09-07T03:44:34.147Z,100083.50
2022-09-07T03:47:04.739Z,100087.75
2022-09-07T03:49:31.860Z,100010.28
2022-09-07T03:52:06.018Z,100085.03
2022-09-07T03:54:42.254Z,100086.25
2022-09-07T03:57:15.330Z,100078.84
2022-09-07T03:59:55.611Z,100074.72
2022-09-07T04:02:45.228Z,100086.66
2022-09-07T04:05:42.303Z,100072.84
2022-09-07T04:08:14.518Z,99996.41
2022-09-07T04:10:47.943Z,100055.19
2022-09-07T04:13:36.660Z,100076.81
2022-09-07T04:16:14.313Z,100069.19
2022-09-07T04:19:00.397Z,100078.66
2022-09-07T04:21:31.666Z,100086.28
2022-09-07T04:24:22.762Z,100075.50
2022-09-07T04:26:53.658Z,100075.13
2022-09-07T04:29:49.671Z,100067.19
2022-09-07T04:32:53.507Z,100063.69
2022-09-07T04:39:30.058Z,100042.50
2022-09-07T04:42:04.649Z,100069.28
2022-09-07T04:44:33.066Z,100005.28
2022-09-07T04:47:29.960Z,100066.59
2022-09-07T04:53:03.080Z,100081.63
2022-09-07T04:55:35.835Z,100064.84
2022-09-07T04:58:13.831Z,100073.34
2022-09-07T05:01:09.550Z,100075.09
2022-09-07T05:03:58.738Z,100070.41
2022-09-07T05:06:36.465Z,100070.34
2022-09-07T05:09:05.071Z,100063.47
2022-09-07T05:11:34.137Z,100072.13
2022-09-07T05:14:14.051Z,100075.53
2022-09-07T05:17:01.563Z,100058.75
2022-09-07T05:19:43.749Z,100081.47
2022-09-07T05:22:13.329Z,100078.19
2022-09-07T05:24:42.452Z,100076.84
2022-09-07T05:27:53.319Z,100088.00
2022-09-07T05:36:21.181Z,100102.38
2022-09-07T05:38:48.417Z,100097.25
2022-09-07T05:44:49.437Z,100077.09
2022-09-07T05:47:34.336Z,100107.69
2022-09-07T05:50:34.546Z,100112.34
2022-09-07T05:53:13.870Z,100066.16
2022-09-07T05:56:11.266Z,100101.97
2022-09-07T05:58:39.603Z,100105.19
2022-09-07T06:07:22.344Z,100106.31
2022-09-07T06:12:54.342Z,100071.78
2022-09-07T06:19:07.081Z,100109.72
2022-09-07T06:22:31.163Z,100109.31
2022-09-07T06:25:00.870Z,100118.16
2022-09-07T06:27:34.998Z,100125.84
2022-09-07T06:30:26.329Z,100112.56
2022-09-07T06:33:47.765Z,100123.44
2022-09-07T06:36:28.820Z,100122.69
2022-09-07T06:39:05.477Z,100111.78
2022-09-07T06:42:02.591Z,100089.88
2022-09-07T06:55:18.895Z,100125.31
2022-09-07T06:58:10.733Z,100124.97
2022-09-07T07:04:47.179Z,100122.72
2022-09-07T07:08:29.638Z,100130.53
2022-09-07T07:11:39.071Z,100129.16
2022-09-07T07:14:19.093Z,100134.56
2022-09-07T07:17:15.410Z,100112.16
2022-09-07T07:22:52.669Z,100145.75
2022-09-07T07:25:41.774Z,100144.69
2022-09-07T07:31:22.336Z,100143.56
2022-09-07T07:35:04.377Z,100148.84
2022-09-07T07:37:32.616Z,100144.81
2022-09-07T07:43:25.044Z,100143.41
2022-09-07T07:46:22.212Z,100157.84
2022-09-07T08:01:28.197Z,100164.59
2022-09-07T08:04:16.752Z,100186.25
2022-09-07T08:06:48.717Z,100184.66
2022-09-07T08:10:15.205Z,100185.03
2022-09-07T08:15:38.962Z,100184.38
2022-09-07T08:18:32.956Z,100192.38
2022-09-07T08:24:09.871Z,100181.59
2022-09-07T08:26:40.378Z,100182.69
2022-09-07T08:29:12.375Z,100193.22
2022-09-07T08:31:47.891Z,100166.13
2022-09-07T08:34:37.597Z,100203.50
2022-09-07T08:41:08.369Z,100191.72
2022-09-07T08:47:41.358Z,100207.19
2022-09-07T08:50:51.474Z,100206.34
2022-09-07T09:05:16.168Z,100204.75
2022-09-07T09:07:54.662Z,100206.25
2022-09-07T09:10:48.878Z,100178.47
2022-09-07T09:13:47.771Z,100204.22
2022-09-07T09:16:31.815Z,100206.53
2022-09-07T09:19:12.444Z,100207.50
2022-09-07T09:21:46.995Z,100209.66
2022-09-07T09:24:24.754Z,100187.31
2022-09-07T09:26:56.998Z,100201.69
2022-09-07T09:29:27.459Z,100168.97
2022-09-07T09:31:57.993Z,100190.03
2022-09-07T09:34:29.378Z,100186.00
2022-09-07T09:37:06.063Z,100183.66
2022-09-07T09:39:38.270Z,100165.06
2022-09-07T09:42:18.112Z,100178.34
2022-09-07T09:44:48.048Z,100183.00
2022-09-07T09:47:33.185Z,100180.06
2022-09-07T09:50:09.480Z,100173.44
2022-09-07T09:52:49.224Z,100182.19
2022-09-07T09:55:36.293Z,100169.03
2022-09-07T10:01:36.381Z,100157.06
2022-09-07T10:04:27.906Z,100135.91
2022-09-07T10:07:17.552Z,100148.56
2022-09-07T10:09:51.510Z,100136.44
2022-09-07T10:12:29.736Z,100147.25
2022-09-07T10:15:03.331Z,100142.69
2022-09-07T10:17:51.492Z,100146.91
2022-09-07T10:20:38.305Z,100144.09
2022-09-07T10:23:21.853Z,100143.72
2022-09-07T10:25:49.646Z,100141.13
2022-09-07T10:28:24.291Z,100143.56
2022-09-07T10:31:00.964Z,100150.69
2022-09-07T10:33:41.613Z,100138.06
2022-09-07T10:36:39.362Z,100156.38
2022-09-07T10:39:30.921Z,100119.94
2022-09-07T10:42:09.929Z,100146.50
2022-09-07T10:44:39.778Z,100152.84
2022-09-07T10:47:24.846Z,100148.72
2022-09-07T10:50:25.878Z,100142.59
2022-09-07T10:53:23.894Z,100144.59
2022-09-07T10:56:18.009Z,100124.44
2022-09-07T10:59:04.432Z,100143.22
2022-09-07T11:01:54.490Z,100147.47
2022-09-07T11:04:33.887Z,100138.38
2022-09-07T11:07:41.198Z,100111.50
2022-09-07T11:10:28.300Z,100130.19
2022-09-07T11:13:03.146Z,100110.63
2022-09-07T11:15:42.305Z,100113.72
2022-09-07T11:18:19.643Z,100117.78
2022-09-07T11:21:01.749Z,100114.84
2022-09-07T11:23:43.599Z,100107.63
2022-09-07T11:26:23.460Z,100107.38
2022-09-07T11:32:11.016Z,100099.03
2022-09-07T11:34:47.606Z,100109.66
2022-09-07T11:37:16.189Z,100098.13
2022-09-07T11:40:10.566Z,100097.00
2022-09-07T11:42:59.809Z,100091.66
2022-09-07T11:46:01.147Z,100096.25
2022-09-07T11:48:48.861Z,100061.03
2022-09-07T11:51:42.238Z,100072.31
2022-09-07T11:54:27.792Z,100083.22
2022-09-07T11:57:21.750Z,100087.81
2022-09-07T12:00:02.424Z,100074.19
2022-09-07T12:03:00.301Z,100056.81
2022-09-07T12:05:51.367Z,100072.47
2022-09-07T12:08:29.910Z,100072.41
2022-09-07T12:11:09.187Z,100047.13
2022-09-07T12:14:13.559Z,100070.09
2022-09-07T12:16:55.048Z,100063.59
2022-09-07T12:19:24.989Z,100056.28
2022-09-07T12:21:51.908Z,100034.53
2022-09-07T12:24:54.125Z,100055.69
2022-09-07T12:27:23.967Z,100008.78
2022-09-07T12:29:52.971Z,100049.78
2022-09-07T12:32:58.105Z,100053.06
2022-09-07T12:35:37.863Z,100060.19
2022-09-07T12:38:31.675Z,100052.25
2022-09-07T12:41:04.375Z,100051.53
2022-09-07T12:43:43.648Z,100045.06
2022-09-07T12:46:21.276Z,100043.25
2022-09-07T12:48:58.214Z,100051.72
2022-09-07T12:55:26.745Z,100042.69
2022-09-07T12:58:12.500Z,100040.78
2022-09-07T13:01:11.480Z,100028.91
2022-09-07T13:03:56.677Z,100031.88
2022-09-07T13:09:38.277Z,100024.41
2022-09-07T13:13:04.465Z,100037.44
2022-09-07T13:16:13.101Z,100031.69
2022-09-07T13:18:44.976Z,100008.16
2022-09-07T13:21:30.248Z,100028.50
2022-09-07T13:27:33.801Z,100024.56
2022-09-07T13:30:23.580Z,99997.22
2022-09-07T13:33:32.655Z,100013.78
2022-09-07T13:36:05.598Z,100023.28
2022-09-07T13:38:35.776Z,100020.09
2022-09-07T13:41:08.296Z,100000.69
2022-09-07T13:43:35.289Z,100014.06
2022-09-07T13:46:13.384Z,100010.56
2022-09-07T13:48:56.606Z,100004.38
2022-09-07T13:51:38.189Z,100002.94
2022-09-07T13:54:49.737Z,100007.78
2022-09-07T13:57:31.243Z,100016.81
2022-09-07T14:00:04.863Z,100012.63
2022-09-07T14:02:36.688Z,100013.25
2022-09-07T14:05:04.543Z,100018.59
2022-09-07T14:07:45.007Z,100017.97
2022-09-07T14:10:21.838Z,100019.00
2022-09-07T14:13:05.229Z,99991.63
2022-09-07T14:15:46.063Z,99984.88
2022-09-07T14:18:30.044Z,100005.81
2022-09-07T14:20:59.623Z,100006.06
2022-09-07T14:23:30.755Z,100007.38
2022-09-07T14:26:17.553Z,99993.88
2022-09-07T14:28:55.812Z,99971.31
2022-09-07T14:31:25.276Z,99970.16
2022-09-07T14:34:01.005Z,99970.28
2022-09-07T14:36:44.583Z,99976.66
2022-09-07T14:39:19.621Z,99981.88
2022-09-07T14:41:47.536Z,99983.09
2022-09-07T14:44:36.718Z,99984.72
2022-09-07T14:47:20.381Z,99950.66
2022-09-07T14:49:55.990Z,99983.94
2022-09-07T14:52:42.384Z,99961.38
2022-09-07T14:55:33.214Z,99974.38
2022-09-07T14:58:22.903Z,99947.63
2022-09-07T15:03:43.439Z,99978.00
2022-09-07T15:09:36.643Z,99973.38
2022-09-07T15:12:36.122Z,99956.38
2022-09-07T15:15:26.549Z,99959.75
2022-09-07T15:18:05.799Z,99958.56
2022-09-07T15:20:45.413Z,99951.84
2022-09-07T15:23:19.320Z,99950.00
2022-09-07T15:25:53.553Z,99960.59
2022-09-07T15:34:20.192Z,99945.34
2022-09-07T15:36:52.931Z,99959.03
2022-09-07T15:39:28.254Z,99968.09
2022-09-07T15:41:55.993Z,99968.69
2022-09-07T15:44:28.327Z,99921.38
2022-09-07T15:49:55.368Z,99973.63
2022-09-07T15:52:25.030Z,99965.44
2022-09-07T15:54:56.660Z,99971.84
2022-09-07T16:00:18.525Z,99970.25
2022-09-07T16:03:05.866Z,99974.22
2022-09-07T16:05:34.192Z,99949.41
2022-09-07T16:10:54.128Z,99966.50
2022-09-07T16:13:31.205Z,99958.41
2022-09-07T16:15:59.816Z,99960.34
2022-09-07T16:18:33.110Z,99972.25
2022-09-07T16:21:14.175Z,99944.63
2022-09-07T16:23:48.084Z,99943.25
2022-09-07T16:26:20.012Z,99968.19
2022-09-07T16:28:51.815Z,99971.44
2022-09-07T16:31:24.388Z,99961.06
2022-09-07T16:34:01.935Z,99962.06
2022-09-07T16:36:32.323Z,99953.75
2022-09-07T16:39:03.940Z,99959.97
2022-09-07T16:41:44.198Z,99954.94
2022-09-07T16:44:19.432Z,99948.25
2022-09-07T16:46:50.649Z,99951.94
2022-09-07T16:49:23.663Z,99920.72
2022-09-07T16:52:10.933Z,99943.78
2022-09-07T16:54:40.494Z,99939.97
2022-09-07T16:57:10.538Z,99943.88
2022-09-07T16:59:37.761Z,99924.31
2022-09-07T17:02:07.221Z,99928.50
2022-09-07T17:04:34.399Z,99916.25
2022-09-07T17:07:07.257Z,99917.84
2022-09-07T17:09:41.310Z,99887.09
2022-09-07T17:12:09.131Z,99923.06
2022-09-07T17:14:40.321Z,99892.00
2022-09-07T17:17:10.486Z,99906.41
2022-09-07T17:19:46.582Z,99910.84
2022-09-07T17:22:13.671Z,99906.41
2022-09-07T17:24:42.748Z,99905.41
2022-09-07T17:27:18.629Z,99910.66
2022-09-07T17:29:45.864Z,99907.16
2022-09-07T17:32:25.765Z,99920.16
2022-09-07T17:34:56.547Z,99927.03
2022-09-07T17:37:26.881Z,99917.06
2022-09-07T17:39:53.978Z,99906.13
2022-09-07T17:42:22.648Z,99916.88
2022-09-07T17:44:52.903Z,99911.81
2022-09-07T17:47:23.642Z,99908.56
2022-09-07T17:49:50.678Z,99917.94
2022-09-07T17:52:26.074Z,99923.72
2022-09-07T17:54:56.287Z,99918.28
2022-09-07T17:57:29.632Z,99894.47
2022-09-07T18:00:14.298Z,99927.00
2022-09-07T18:02:41.433Z,99936.78
2022-09-07T18:05:14.614Z,99932.69
2022-09-07T18:07:49.781Z,99930.50
2022-09-07T18:10:26.860Z,99944.56
2022-09-07T18:13:03.362Z,99955.00
2022-09-07T18:15:33.143Z,99952.75
2022-09-07T18:18:05.857Z,99932.84
2022-09-07T18:20:34.599Z,99959.00
2022-09-07T18:23:05.316Z,99957.84
2022-09-07T18:25:38.655Z,99961.00
2022-09-07T18:30:56.088Z,99958.81
2022-09-07T18:33:23.430Z,99953.91
2022-09-07T18:35:52.735Z,99957.88
2022-09-07T18:38:22.189Z,99927.41
2022-09-07T18:40:55.268Z,99955.47
2022-09-07T18:43:22.785Z,99953.09
2022-09-07T18:45:49.910Z,99951.63
2022-09-07T18:48:19.693Z,99951.84
2022-09-07T18:50:57.852Z,99946.59
2022-09-07T18:53:27.408Z,99941.53
2022-09-07T18:56:14.255Z,99950.47
2022-09-07T18:58:42.475Z,99931.34
2022-09-07T19:01:14.924Z,99935.81
2022-09-07T19:03:43.709Z,99926.66
2022-09-07T19:06:15.503Z,99928.28
2022-09-07T19:08:44.195Z,99921.78
2022-09-07T19:11:17.600Z,99919.28
2022-09-07T19:13:50.823Z,99916.34
2022-09-07T19:16:22.834Z,99908.59
2022-09-07T19:18:57.440Z,99904.22
2022-09-07T19:21:27.147Z,99891.13
2022-09-07T19:24:03.245Z,99888.97
2022-09-07T19:26:35.818Z,99881.81
2022-09-07T19:29:10.565Z,99871.91
2022-09-07T19:31:43.720Z,99848.03
2022-09-07T19:34:11.246Z,99856.81
2022-09-07T19:36:38.870Z,99841.84
2022-09-07T19:39:08.974Z,99859.81
2022-09-07T19:41:42.161Z,99852.47
2022-09-07T19:44:11.815Z,99844.81
2022-09-07T19:46:38.892Z,99828.59
2022-09-07T19:49:18.907Z,99822.22
2022-09-07T19:51:52.227Z,99811.00
2022-09-07T19:54:24.675Z,99821.25
2022-09-07T19:56:54.616Z,99820.00
2022-09-07T19:59:21.711Z,99826.22
2022-09-07T20:01:50.766Z,99824.25
2022-09-07T20:04:23.506Z,99812.44
2022-09-07T20:06:52.271Z,99800.59
2022-09-07T20:09:20.663Z,99811.44
2022-09-07T20:11:53.797Z,99800.13
2022-09-07T20:14:20.893Z,99807.81
2022-09-07T20:16:50.318Z,99778.69
2022-09-07T20:19:22.472Z,99805.41
2022-09-07T20:21:55.978Z,99803.91
2022-09-07T20:24:23.659Z,99800.47
2022-09-07T20:26:50.702Z,99807.66
2022-09-07T20:29:27.890Z,99797.25
2022-09-07T20:31:58.114Z,99801.47
2022-09-07T20:34:26.464Z,99811.97
2022-09-07T20:36:54.280Z,99817.84
2022-09-07T20:39:24.483Z,99795.84
2022-09-07T20:41:51.758Z,99823.72
2022-09-07T20:44:23.906Z,99804.25
2022-09-07T20:46:56.571Z,99807.91
2022-09-07T20:49:26.321Z,99812.38
2022-09-07T20:51:56.255Z,99818.13
2022-09-07T20:54:28.567Z,99803.88
2022-09-07T20:57:03.985Z,99811.25
2022-09-07T20:59:32.245Z,99809.53
2022-09-07T21:02:07.242Z,99820.31
2022-09-07T21:04:36.961Z,99818.94
2022-09-07T21:07:09.609Z,99821.66
2022-09-07T21:09:36.687Z,99818.63
2022-09-07T21:12:08.935Z,99817.22
2022-09-07T21:14:38.362Z,99808.00
2022-09-07T21:17:13.979Z,99813.81
2022-09-07T21:19:43.612Z,99806.31
2022-09-07T21:22:13.693Z,99807.88
2022-09-07T21:24:41.177Z,99807.25
2022-09-07T21:27:14.152Z,99821.63
2022-09-07T21:29:46.911Z,99815.63
2022-09-07T21:32:16.800Z,99822.78
2022-09-07T21:34:43.796Z,99827.84
2022-09-07T21:37:16.109Z,99820.88
2022-09-07T21:39:45.705Z,99820.38
2022-09-07T21:42:18.631Z,99811.09
2022-09-07T21:44:50.807Z,99799.41
2022-09-07T21:47:17.673Z,99806.59
2022-09-07T21:49:47.568Z,99801.75
2022-09-07T21:52:14.731Z,99800.00
2022-09-07T21:54:44.846Z,99792.06
2022-09-07T21:57:19.970Z,99798.81
2022-09-07T21:59:47.002Z,99777.41
2022-09-07T22:02:22.328Z,99800.31
2022-09-07T22:04:54.550Z,99801.66
2022-09-07T22:07:26.852Z,99798.34
2022-09-07T22:09:56.568Z,99794.72
2022-09-07T22:12:29.314Z,99790.81
2022-09-07T22:14:59.311Z,99788.19
2022-09-07T22:17:29.420Z,99790.06
2022-09-07T22:19:59.518Z,99780.06
2022-09-07T22:22:26.598Z,99779.22
2022-09-07T22:24:55.885Z,99791.44
2022-09-07T22:27:25.377Z,99797.16
2022-09-07T22:29:55.577Z,99790.97
2022-09-07T22:32:25.487Z,99779.44
2022-09-07T22:34:57.969Z,99780.81
2022-09-07T22:37:47.190Z,99774.34
2022-09-07T22:40:17.306Z,99783.66
2022-09-07T22:42:52.797Z,99776.72
2022-09-07T22:45:19.750Z,99766.06
2022-09-07T22:47:47.717Z,99762.88
2022-09-07T22:50:20.608Z,99757.19
2022-09-07T22:52:50.695Z,99768.78
2022-09-07T22:55:20.764Z,99757.41
2022-09-07T22:57:50.692Z,99803.03
2022-09-07T23:00:23.126Z,99808.44
2022-09-07T23:03:00.179Z,99815.91
2022-09-07T23:05:35.210Z,99837.09
2022-09-07T23:08:07.238Z,99836.13
2022-09-07T23:10:38.194Z,99824.78
2022-09-07T23:13:05.609Z,99839.59
2022-09-07T23:15:38.269Z,99855.53
2022-09-07T23:18:05.237Z,99851.25
2022-09-07T23:20:36.849Z,99850.81
2022-09-07T23:23:11.131Z,99833.63
2022-09-07T23:26:29.402Z,99835.28
2022-09-07T23:29:22.376Z,99818.19
2022-09-07T23:31:52.521Z,99815.13
2022-09-07T23:35:22.249Z,99810.91
